Time;durP1;ratioP1;P1;durP2;ratioP2;P2;SDS_P1;SDS_P2;PMS_P1;PMS_P2;Temp;Humidity;BMP_temperature;BMP_pressure;BME280_temperature;BME280_humidity;BME280_pressure;Samples;Min_cycle;Max_cycle;Signal;HPM_P1;HPM_P2
2022/11/16 00:00:48;;;;;;;10.85;8.02;;;10.90;99.90;;;;;;5019395;28;20511;-39
2022/11/16 00:03:15;;;;;;;9.95;8.35;;;10.90;99.90;;;;;;5024500;28;20045;-40
2022/11/16 00:05:41;;;;;;;11.88;9.02;;;10.90;99.90;;;;;;5049589;28;20068;-40
2022/11/16 00:08:08;;;;;;;12.00;9.30;;;10.90;99.90;;;;;;5027775;28;20099;-43
2022/11/16 00:10:36;;;;;;;11.48;8.90;;;10.90;99.90;;;;;;5037735;28;20129;-42
2022/11/16 00:13:03;;;;;;;14.60;8.95;;;10.90;99.90;;;;;;5030998;28;20079;-45
2022/11/16 00:15:30;;;;;;;12.82;8.93;;;11.00;99.90;;;;;;5027856;28;20084;-41
2022/11/16 00:17:56;;;;;;;10.10;8.65;;;10.90;99.90;;;;;;5018652;28;20127;-44
2022/11/16 00:20:23;;;;;;;14.00;9.93;;;10.90;99.90;;;;;;5015719;28;20093;-44
2022/11/16 00:22:50;;;;;;;11.80;9.27;;;10.90;99.90;;;;;;5021765;28;20556;-44
2022/11/16 00:25:17;;;;;;;12.60;9.45;;;10.90;99.90;;;;;;5050045;28;20504;-46
2022/11/16 00:27:45;;;;;;;14.68;9.77;;;10.90;99.90;;;;;;5025428;28;20137;-46
2022/11/16 00:30:12;;;;;;;12.13;9.95;;;11.00;99.90;;;;;;5032671;28;20077;-43
2022/11/16 00:32:39;;;;;;;14.55;10.20;;;10.90;99.90;;;;;;5047276;28;20091;-45
2022/11/16 00:35:07;;;;;;;12.07;9.75;;;10.90;99.90;;;;;;5036040;28;20081;-43
2022/11/16 00:37:34;;;;;;;14.35;10.32;;;10.90;99.90;;;;;;5049180;28;20147;-46
2022/11/16 00:40:00;;;;;;;13.55;10.68;;;10.90;99.90;;;;;;5036612;28;20080;-41
2022/11/16 00:42:27;;;;;;;11.73;10.18;;;10.90;99.90;;;;;;5055529;28;20084;-44
2022/11/16 00:44:55;;;;;;;14.70;10.13;;;10.90;99.90;;;;;;5036632;28;20128;-44
2022/11/16 00:47:22;;;;;;;13.82;10.93;;;10.90;99.90;;;;;;5042184;28;20167;-41
2022/11/16 00:49:49;;;;;;;16.48;11.30;;;11.00;99.90;;;;;;5037183;28;20049;-44
2022/11/16 00:52:16;;;;;;;14.27;10.85;;;11.00;99.90;;;;;;5056141;28;20445;-45
2022/11/16 00:54:43;;;;;;;19.45;11.60;;;11.00;99.90;;;;;;5055545;28;20088;-45
2022/11/16 00:57:10;;;;;;;14.18;11.20;;;11.00;99.90;;;;;;5026624;28;20094;-43
2022/11/16 00:59:36;;;;;;;15.25;11.52;;;11.00;99.90;;;;;;5045251;28;20085;-45
2022/11/16 01:02:04;;;;;;;14.13;11.43;;;11.00;99.90;;;;;;5023187;28;20111;-41
2022/11/16 01:04:31;;;;;;;16.67;11.38;;;11.00;99.90;;;;;;5036811;28;20549;-44
2022/11/16 01:06:58;;;;;;;17.98;11.95;;;11.00;99.90;;;;;;5050614;28;20516;-44
2022/11/16 01:09:25;;;;;;;15.27;11.35;;;11.00;99.90;;;;;;5026317;28;20552;-41
2022/11/16 01:12:11;;;;;;;17.10;11.98;;;11.00;99.90;;;;;;5046227;28;20437;-45
2022/11/16 01:14:37;;;;;;;15.45;12.77;;;11.00;99.90;;;;;;5053574;28;20044;-43
2022/11/16 01:17:05;;;;;;;20.65;13.18;;;11.00;99.90;;;;;;5044445;28;20057;-44
2022/11/16 01:19:32;;;;;;;16.27;12.38;;;11.00;99.90;;;;;;5038191;28;20136;-46
2022/11/16 01:21:59;;;;;;;19.92;13.77;;;11.00;99.90;;;;;;5055133;28;20120;-42
2022/11/16 01:24:26;;;;;;;16.10;12.27;;;11.00;99.90;;;;;;5054224;28;20049;-44
2022/11/16 01:26:55;;;;;;;18.67;12.90;;;11.00;99.90;;;;;;5045380;28;20081;-46
2022/11/16 01:29:22;;;;;;;23.25;14.52;;;11.00;99.90;;;;;;5054054;28;20045;-44
2022/11/16 01:31:49;;;;;;;22.25;15.80;;;11.00;99.90;;;;;;5049746;28;20128;-43
2022/11/16 01:34:17;;;;;;;23.23;16.55;;;11.00;99.90;;;;;;5048560;28;20076;-43
2022/11/16 01:36:44;;;;;;;24.17;17.00;;;11.20;99.90;;;;;;5051609;28;20081;-42
2022/11/16 01:39:11;;;;;;;24.35;17.67;;;11.10;99.90;;;;;;5037025;28;20491;-45
2022/11/16 01:41:38;;;;;;;27.90;18.30;;;11.10;99.90;;;;;;5055171;28;20140;-43
2022/11/16 01:44:05;;;;;;;29.27;20.00;;;11.10;99.90;;;;;;5054774;28;20077;-44
2022/11/16 01:46:32;;;;;;;33.78;21.17;;;11.10;99.90;;;;;;5038846;28;20140;-43
2022/11/16 01:49:01;;;;;;;29.67;20.60;;;11.10;99.90;;;;;;5044565;28;20544;-40
2022/11/16 01:51:30;;;;;;;30.75;22.45;;;11.10;99.90;;;;;;5053926;28;20138;-39
2022/11/16 01:53:56;;;;;;;31.45;21.75;;;11.10;99.90;;;;;;5021914;28;20138;-39
2022/11/16 01:56:23;;;;;;;34.90;22.70;;;11.10;99.90;;;;;;5021790;28;20096;-37
2022/11/16 01:58:50;;;;;;;31.02;21.65;;;11.10;99.90;;;;;;5032736;28;20084;-38
2022/11/16 02:01:17;;;;;;;29.77;22.48;;;11.10;99.90;;;;;;5024387;28;20053;-39
2022/11/16 02:03:44;;;;;;;33.28;24.38;;;11.10;99.90;;;;;;5045927;28;20136;-40
2022/11/16 02:06:30;;;;;;;37.78;24.52;;;11.20;99.90;;;;;;5048722;28;20064;-40
2022/11/16 02:12:05;;;;;;;35.65;24.77;;;11.10;99.90;;;;;;5051375;28;20554;-42
2022/11/16 02:14:39;;;;;;;31.92;21.77;;;11.10;99.90;;;;;;5049999;28;20049;-39
2022/11/16 02:17:09;;;;;;;27.30;18.67;;;11.10;99.90;;;;;;5046438;28;20136;-44
2022/11/16 02:19:54;;;;;;;25.35;17.23;;;11.10;99.90;;;;;;5043523;28;20049;-44
2022/11/16 02:22:26;;;;;;;25.30;16.08;;;11.20;99.90;;;;;;5049089;28;20527;-43
2022/11/16 02:24:57;;;;;;;26.25;16.10;;;11.20;99.90;;;;;;5049704;28;20455;-44
2022/11/16 02:27:51;;;;;;;25.63;15.45;;;11.20;99.90;;;;;;5025628;28;20768;-42
2022/11/16 02:30:19;;;;;;;21.17;15.95;;;11.20;99.90;;;;;;5044015;28;20080;-43
2022/11/16 02:32:48;;;;;;;24.23;15.45;;;11.10;99.90;;;;;;5029630;28;20053;-42
2022/11/16 02:35:16;;;;;;;28.08;16.45;;;11.20;99.90;;;;;;5043274;28;20125;-41
2022/11/16 02:37:44;;;;;;;28.58;17.55;;;11.20;99.90;;;;;;5045719;28;20471;-41
2022/11/16 02:40:12;;;;;;;33.55;17.52;;;11.20;99.90;;;;;;5032478;28;20109;-41
2022/11/16 02:42:40;;;;;;;28.13;17.83;;;11.20;99.90;;;;;;5054378;28;20424;-42
2022/11/16 02:45:08;;;;;;;31.30;17.40;;;11.20;99.90;;;;;;5032297;28;20104;-40
2022/11/16 02:47:37;;;;;;;29.42;17.33;;;11.20;99.90;;;;;;5037120;28;20127;-41
2022/11/16 02:50:06;;;;;;;30.13;16.75;;;11.20;99.90;;;;;;5025761;28;20094;-40
2022/11/16 02:52:33;;;;;;;35.33;17.35;;;11.20;99.90;;;;;;5043523;28;20053;-41
2022/11/16 02:54:59;;;;;;;30.75;17.40;;;11.20;99.90;;;;;;5042021;28;20444;-40
2022/11/16 02:57:33;;;;;;;26.02;15.50;;;11.20;99.90;;;;;;5034153;28;20045;-41
2022/11/16 02:59:59;;;;;;;30.27;17.05;;;11.20;99.90;;;;;;5032858;28;20154;-40
2022/11/16 03:02:27;;;;;;;26.77;15.85;;;11.20;99.90;;;;;;5048503;28;20107;-39
2022/11/16 03:04:58;;;;;;;27.48;16.58;;;11.20;99.90;;;;;;5052318;28;20123;-39
2022/11/16 03:07:27;;;;;;;28.52;15.68;;;11.20;99.90;;;;;;5020699;28;20131;-38
2022/11/16 03:09:53;;;;;;;34.22;18.23;;;11.20;99.90;;;;;;5043332;28;20124;-37
2022/11/16 03:12:21;;;;;;;33.28;19.90;;;11.20;99.90;;;;;;5051651;28;20053;-39
2022/11/16 03:14:49;;;;;;;38.58;22.00;;;11.20;99.90;;;;;;5051017;28;20063;-41
2022/11/16 03:17:17;;;;;;;44.78;22.65;;;11.20;99.90;;;;;;5052706;28;20053;-40
2022/11/16 03:19:49;;;;;;;40.28;23.58;;;11.20;99.90;;;;;;5052877;28;20573;-38
2022/11/16 03:22:18;;;;;;;51.92;25.33;;;11.20;99.90;;;;;;5036499;28;20037;-43
2022/11/16 03:24:45;;;;;;;50.33;27.58;;;11.20;99.90;;;;;;5042311;28;20053;-40
2022/11/16 03:27:15;;;;;;;51.20;28.08;;;11.20;99.90;;;;;;5034933;28;20132;-40
2022/11/16 03:29:44;;;;;;;35.30;21.67;;;11.20;99.90;;;;;;5051109;28;20393;-41
2022/11/16 03:32:13;;;;;;;37.85;22.75;;;11.10;99.90;;;;;;5024804;28;20106;-39
2022/11/16 03:34:40;;;;;;;30.13;19.20;;;11.10;99.90;;;;;;5051881;28;20492;-39
2022/11/16 03:37:06;;;;;;;30.98;18.20;;;11.10;99.90;;;;;;5034493;28;20049;-40
2022/11/16 03:39:37;;;;;;;27.70;18.05;;;11.10;99.90;;;;;;5052845;28;20052;-39
2022/11/16 03:42:05;;;;;;;21.65;14.65;;;11.10;99.90;;;;;;5053164;28;20088;-38
2022/11/16 03:44:32;;;;;;;20.73;14.02;;;11.10;99.90;;;;;;5039867;28;20147;-39
2022/11/16 03:46:59;;;;;;;21.95;13.27;;;11.10;99.90;;;;;;5051359;28;20080;-38
2022/11/16 03:49:26;;;;;;;19.83;12.27;;;11.10;99.90;;;;;;5039967;28;20092;-42
2022/11/16 03:51:52;;;;;;;15.75;11.77;;;11.10;99.90;;;;;;5043331;28;20088;-42
2022/11/16 03:54:19;;;;;;;15.73;11.32;;;11.10;99.90;;;;;;5035540;28;20049;-44
2022/11/16 03:56:47;;;;;;;13.77;10.90;;;11.10;99.90;;;;;;5042644;28;20092;-44
2022/11/16 03:59:14;;;;;;;15.55;11.35;;;11.10;99.90;;;;;;5038181;28;20092;-41
2022/11/16 04:01:41;;;;;;;15.00;11.38;;;11.10;99.90;;;;;;5051679;28;20045;-46
2022/11/16 04:24:10;;;;;;;18.02;11.57;;;11.10;99.90;;;;;;5035014;28;20140;-49
2022/11/16 04:26:07;;;;;;;17.33;12.77;;;11.10;99.90;;;;;;5050210;28;20053;-46
2022/11/16 04:28:34;;;;;;;17.45;13.57;;;11.10;99.90;;;;;;5051140;28;20092;-47
2022/11/16 04:39:14;;;;;;;19.20;13.50;;;11.10;99.90;;;;;;5051154;28;20132;-49
2022/11/16 04:47:05;;;;;;;17.90;13.30;;;11.10;99.90;;;;;;5043318;28;20042;-49
2022/11/16 04:47:12;;;;;;;20.08;13.93;;;11.10;99.90;;;;;;5029055;28;20398;-46
2022/11/16 04:49:39;;;;;;;18.55;13.25;;;11.10;99.90;;;;;;5044790;28;20044;-44
2022/11/16 04:52:07;;;;;;;15.82;12.80;;;11.10;99.90;;;;;;5035997;28;20080;-46
2022/11/16 04:54:34;;;;;;;16.40;12.55;;;11.00;99.90;;;;;;5047352;28;20408;-40
2022/11/16 04:57:01;;;;;;;17.88;14.10;;;11.10;99.90;;;;;;5029608;28;20076;-47
2022/11/16 04:59:29;;;;;;;25.20;14.65;;;11.10;99.90;;;;;;5048317;28;20089;-50
2022/11/16 05:02:07;;;;;;;18.13;13.05;;;11.10;99.90;;;;;;5045341;28;20041;-46
2022/11/16 05:04:34;;;;;;;15.55;12.23;;;11.10;99.90;;;;;;5042354;28;20071;-48
2022/11/16 05:07:01;;;;;;;19.52;14.05;;;11.20;99.90;;;;;;5038735;28;20041;-46
2022/11/16 05:09:28;;;;;;;18.27;14.25;;;11.10;99.90;;;;;;5020222;28;20049;-46
2022/11/16 05:11:55;;;;;;;17.67;13.93;;;11.10;99.90;;;;;;5046123;28;20127;-45
2022/11/16 05:14:21;;;;;;;18.00;13.20;;;11.10;99.90;;;;;;5050217;28;20099;-48
2022/11/16 05:16:49;;;;;;;18.15;14.52;;;11.10;99.90;;;;;;5033574;28;20045;-46
2022/11/16 05:22:00;;;;;;;19.02;13.80;;;11.10;99.90;;;;;;4995561;28;20045;-43
2022/11/16 05:24:35;;;;;;;18.55;14.07;;;11.10;99.90;;;;;;5052800;28;20103;-46
2022/11/16 05:27:03;;;;;;;19.40;13.88;;;11.00;99.90;;;;;;5046884;28;20072;-46
2022/11/16 05:29:29;;;;;;;19.15;13.88;;;11.00;99.90;;;;;;5032879;28;20555;-45
2022/11/16 05:31:57;;;;;;;19.50;15.18;;;11.10;99.90;;;;;;5051109;28;20057;-46
2022/11/16 05:34:24;;;;;;;21.83;14.40;;;11.10;99.90;;;;;;5040693;28;20131;-46
2022/11/16 05:36:51;;;;;;;19.80;15.02;;;11.00;99.90;;;;;;5049252;28;20516;-46
2022/11/16 05:39:18;;;;;;;19.40;14.63;;;11.00;99.90;;;;;;5046141;28;20053;-48
2022/11/16 05:41:45;;;;;;;17.10;14.07;;;11.00;99.90;;;;;;5054417;28;20052;-50
2022/11/16 05:44:15;;;;;;;21.55;15.45;;;11.10;99.90;;;;;;5053084;28;20084;-49
2022/11/16 05:46:43;;;;;;;17.20;13.75;;;11.10;99.90;;;;;;5050632;28;20550;-45
2022/11/16 05:49:11;;;;;;;19.05;14.45;;;11.10;99.90;;;;;;5037705;28;20146;-45
2022/11/16 05:51:38;;;;;;;21.02;14.05;;;11.20;99.90;;;;;;5037219;28;20134;-40
2022/11/16 05:54:05;;;;;;;18.77;14.32;;;11.10;99.90;;;;;;5062804;28;20507;-39
2022/11/16 05:56:32;;;;;;;21.52;13.88;;;11.10;99.90;;;;;;5055427;28;20492;-40
2022/11/16 05:58:59;;;;;;;20.02;14.35;;;11.20;99.90;;;;;;5037976;28;20077;-42
2022/11/16 06:01:26;;;;;;;23.80;14.23;;;11.10;99.90;;;;;;5007757;28;20138;-42
2022/11/16 06:03:53;;;;;;;21.02;14.80;;;11.10;99.90;;;;;;5016392;28;20140;-40
2022/11/16 06:06:21;;;;;;;20.48;14.55;;;11.10;99.90;;;;;;5035318;28;20497;-41
2022/11/16 06:08:48;;;;;;;21.13;14.63;;;11.10;99.90;;;;;;5020689;28;20133;-40
2022/11/16 06:11:14;;;;;;;19.48;15.27;;;11.10;99.90;;;;;;5000983;28;20078;-40
2022/11/16 06:13:41;;;;;;;21.77;14.60;;;11.10;99.90;;;;;;5016413;28;20077;-38
2022/11/16 06:16:08;;;;;;;25.35;15.32;;;11.10;99.90;;;;;;5026680;28;20535;-45
2022/11/16 06:18:37;;;;;;;21.02;14.57;;;11.10;99.90;;;;;;5005630;28;20108;-45
2022/11/16 06:21:04;;;;;;;19.60;15.02;;;11.10;99.90;;;;;;5015166;28;20128;-41
2022/11/16 06:23:32;;;;;;;20.92;14.65;;;11.10;99.90;;;;;;5033875;28;20132;-40
2022/11/16 06:25:59;;;;;;;18.90;14.43;;;11.10;99.90;;;;;;5032555;28;20726;-41
2022/11/16 06:28:26;;;;;;;24.92;14.35;;;11.10;99.90;;;;;;5021685;28;20119;-40
2022/11/16 06:30:53;;;;;;;18.75;14.48;;;11.10;99.90;;;;;;5033211;28;20096;-39
2022/11/16 06:33:19;;;;;;;14.73;12.13;;;11.10;99.90;;;;;;5010987;28;20081;-41
2022/11/16 06:35:46;;;;;;;16.10;13.02;;;11.10;99.90;;;;;;5012964;28;20101;-40
2022/11/16 06:38:17;;;;;;;21.33;13.77;;;11.10;99.90;;;;;;5014585;28;20152;-41
2022/11/16 06:40:45;;;;;;;16.52;11.80;;;11.10;99.90;;;;;;5006378;28;20049;-40
2022/11/16 06:43:12;;;;;;;13.40;10.75;;;11.10;99.90;;;;;;5018187;28;20391;-40
2022/11/16 06:45:39;;;;;;;14.60;11.88;;;11.10;99.90;;;;;;5003512;28;20077;-40
2022/11/16 06:48:06;;;;;;;14.13;11.38;;;11.10;99.90;;;;;;5015809;28;20136;-40
2022/11/16 06:50:32;;;;;;;12.88;10.95;;;11.10;99.90;;;;;;5016759;28;20132;-40
2022/11/16 06:52:59;;;;;;;14.75;11.32;;;11.10;99.90;;;;;;5034473;28;20154;-40
2022/11/16 06:55:26;;;;;;;14.60;11.63;;;11.10;99.90;;;;;;5034629;28;20089;-41
2022/11/16 06:57:54;;;;;;;13.63;11.10;;;11.10;99.90;;;;;;5034313;28;20049;-40
2022/11/16 07:00:21;;;;;;;13.63;11.35;;;11.20;99.90;;;;;;5044238;28;20455;-42
2022/11/16 07:02:48;;;;;;;13.45;11.38;;;11.20;99.90;;;;;;5046491;28;20055;-44
2022/11/16 07:05:15;;;;;;;15.63;11.73;;;11.20;99.90;;;;;;5052410;28;20481;-43
2022/11/16 07:07:42;;;;;;;16.30;10.80;;;11.10;99.90;;;;;;5034358;28;20140;-44
2022/11/16 07:10:09;;;;;;;14.98;11.50;;;11.10;99.90;;;;;;5034276;28;20140;-44
2022/11/16 07:12:36;;;;;;;14.02;11.57;;;11.10;99.90;;;;;;5034155;28;20107;-49
2022/11/16 07:15:05;;;;;;;18.40;12.57;;;11.10;99.90;;;;;;5016758;28;20093;-45
2022/11/16 07:17:32;;;;;;;14.23;11.65;;;11.20;99.90;;;;;;5016539;28;20088;-46
2022/11/16 07:19:59;;;;;;;12.50;11.07;;;11.10;99.90;;;;;;5016271;28;20049;-46
2022/11/16 07:22:26;;;;;;;15.70;12.07;;;11.20;99.90;;;;;;5033603;28;20516;-47
2022/11/16 07:24:52;;;;;;;16.98;12.48;;;11.20;99.90;;;;;;5033460;28;20049;-46
2022/11/16 07:27:19;;;;;;;12.57;11.07;;;11.10;99.90;;;;;;5035878;28;20053;-47
2022/11/16 07:29:46;;;;;;;16.00;13.50;;;11.10;99.90;;;;;;5036358;28;20049;-45
2022/11/16 07:32:14;;;;;;;14.27;12.27;;;11.10;99.90;;;;;;5016232;28;20488;-43
2022/11/16 07:34:41;;;;;;;16.92;12.45;;;11.20;99.90;;;;;;5015712;28;20057;-44
2022/11/16 07:37:07;;;;;;;20.02;13.85;;;11.10;99.90;;;;;;5029153;28;20088;-44
2022/11/16 07:39:34;;;;;;;20.55;14.95;;;11.10;99.90;;;;;;5053352;28;20053;-44
2022/11/16 07:42:01;;;;;;;15.57;13.13;;;11.10;99.90;;;;;;5053107;28;20487;-43
2022/11/16 07:44:28;;;;;;;18.33;14.88;;;11.10;99.90;;;;;;5053586;28;20133;-44
2022/11/16 07:46:55;;;;;;;16.15;12.85;;;11.10;99.90;;;;;;5020583;28;20128;-43
2022/11/16 07:49:23;;;;;;;16.60;13.38;;;11.10;99.90;;;;;;5033271;28;20088;-43
2022/11/16 07:51:49;;;;;;;19.52;13.30;;;11.10;99.90;;;;;;5015447;28;20132;-43
2022/11/16 07:54:16;;;;;;;16.15;12.68;;;11.10;99.90;;;;;;5017102;28;20053;-42
2022/11/16 07:56:43;;;;;;;27.52;19.10;;;11.10;99.90;;;;;;5051501;28;20059;-43
2022/11/16 07:59:10;;;;;;;16.98;13.25;;;11.10;99.90;;;;;;5047044;28;20060;-41
2022/11/16 08:01:37;;;;;;;17.15;12.30;;;11.10;99.90;;;;;;5052168;28;20134;-41
2022/11/16 08:04:03;;;;;;;15.90;12.90;;;11.10;99.90;;;;;;5052270;28;20080;-42
2022/11/16 08:06:31;;;;;;;18.35;12.20;;;11.10;99.90;;;;;;5049732;28;20114;-41
2022/11/16 08:08:59;;;;;;;15.98;12.00;;;11.00;99.90;;;;;;5052804;28;20059;-43
2022/11/16 08:11:26;;;;;;;15.80;12.88;;;11.00;99.90;;;;;;5052209;28;20051;-41
2022/11/16 08:13:53;;;;;;;18.00;11.95;;;11.00;99.90;;;;;;5040984;28;20133;-41
2022/11/16 08:16:20;;;;;;;17.60;12.00;;;11.00;99.90;;;;;;5015328;28;20464;-41
2022/11/16 08:18:47;;;;;;;17.05;11.80;;;11.00;99.90;;;;;;5032858;28;20088;-41
2022/11/16 08:21:15;;;;;;;14.25;11.45;;;11.00;99.90;;;;;;5032911;28;20045;-40
2022/11/16 08:23:44;;;;;;;14.57;11.15;;;11.00;99.90;;;;;;5041330;28;20122;-39
2022/11/16 08:26:13;;;;;;;18.00;12.25;;;11.00;99.90;;;;;;5052599;28;20055;-40
2022/11/16 08:28:40;;;;;;;17.15;12.45;;;11.00;99.90;;;;;;5052976;28;20128;-39
2022/11/16 08:31:08;;;;;;;17.02;12.38;;;11.00;99.90;;;;;;5033895;28;20056;-41
2022/11/16 08:33:35;;;;;;;19.65;12.00;;;11.00;99.90;;;;;;5035108;28;20059;-41
2022/11/16 08:36:04;;;;;;;13.98;11.23;;;11.10;99.90;;;;;;5051387;28;20268;-40
2022/11/16 08:38:30;;;;;;;16.35;11.55;;;11.00;99.90;;;;;;5034973;28;20060;-40
2022/11/16 08:40:59;;;;;;;14.57;11.25;;;11.00;99.90;;;;;;5034428;28;20059;-41
2022/11/16 08:43:25;;;;;;;14.98;11.15;;;11.00;99.90;;;;;;5052663;28;20045;-41
2022/11/16 08:45:53;;;;;;;11.88;9.95;;;11.00;99.90;;;;;;5043212;28;20487;-40
2022/11/16 08:48:19;;;;;;;14.07;10.98;;;11.10;99.90;;;;;;5015317;28;20075;-41
2022/11/16 08:50:46;;;;;;;15.35;11.20;;;11.00;99.90;;;;;;5044783;28;20076;-40
2022/11/16 08:53:14;;;;;;;16.85;11.63;;;11.10;99.90;;;;;;5052400;28;20473;-40
2022/11/16 08:55:41;;;;;;;15.07;11.75;;;11.10;99.90;;;;;;5052385;28;20053;-40
2022/11/16 08:58:09;;;;;;;14.27;11.27;;;11.10;99.90;;;;;;5052528;28;20049;-41
2022/11/16 09:00:36;;;;;;;13.60;10.63;;;11.20;99.90;;;;;;5055728;28;20082;-40
2022/11/16 09:03:03;;;;;;;12.43;9.60;;;11.20;99.90;;;;;;5038323;28;20052;-40
2022/11/16 09:05:30;;;;;;;15.70;9.75;;;11.10;99.90;;;;;;5056396;28;20106;-39
2022/11/16 09:07:56;;;;;;;13.13;10.38;;;11.20;99.90;;;;;;5055531;28;20569;-41
2022/11/16 09:10:24;;;;;;;13.07;11.27;;;11.30;99.90;;;;;;5036789;28;20123;-40
2022/11/16 09:12:51;;;;;;;16.63;11.20;;;11.30;99.90;;;;;;5019001;28;20058;-39
2022/11/16 09:15:19;;;;;;;13.27;11.23;;;11.30;99.90;;;;;;5042060;28;20076;-40
2022/11/16 09:17:46;;;;;;;15.80;12.00;;;11.40;99.90;;;;;;5056144;28;20136;-39
2022/11/16 09:20:13;;;;;;;13.93;11.85;;;11.40;99.90;;;;;;5056000;28;20063;-41
2022/11/16 09:22:40;;;;;;;15.63;12.25;;;11.40;99.90;;;;;;5038061;28;20056;-40
2022/11/16 09:25:09;;;;;;;16.92;12.50;;;11.50;99.90;;;;;;5055946;28;20072;-40
2022/11/16 09:27:36;;;;;;;17.77;13.65;;;11.60;99.90;;;;;;5046359;28;20052;-40
2022/11/16 09:30:03;;;;;;;18.63;13.23;;;11.60;99.90;;;;;;5042565;28;20129;-39
2022/11/16 09:32:32;;;;;;;16.50;13.75;;;11.70;99.90;;;;;;5053867;28;20106;-38
2022/11/16 09:34:58;;;;;;;17.55;13.60;;;11.80;99.90;;;;;;5035745;28;20205;-40
2022/11/16 09:37:25;;;;;;;21.60;15.55;;;11.80;99.90;;;;;;5018147;28;20085;-39
2022/11/16 09:39:52;;;;;;;25.15;16.15;;;11.80;99.90;;;;;;5018217;28;20528;-39
2022/11/16 09:42:31;;;;;;;25.02;15.00;;;11.90;99.90;;;;;;5036153;28;20099;-39
2022/11/16 09:45:04;;;;;;;22.52;15.65;;;11.90;99.90;;;;;;5035413;28;20144;-41
2022/11/16 09:47:48;;;;;;;23.67;17.52;;;11.90;99.90;;;;;;5043951;28;20056;-39
2022/11/16 09:50:41;;;;;;;28.00;16.70;;;12.00;99.90;;;;;;5055489;28;20106;-40
2022/11/16 09:53:21;;;;;;;27.83;16.65;;;12.20;99.90;;;;;;5037973;28;20068;-40
2022/11/16 09:55:48;;;;;;;22.77;15.27;;;12.30;99.90;;;;;;5055427;28;20052;-40
2022/11/16 09:58:17;;;;;;;21.80;15.32;;;12.30;99.90;;;;;;5037580;28;20107;-40
2022/11/16 10:00:48;;;;;;;27.58;15.48;;;12.30;99.90;;;;;;5055358;28;20575;-40
2022/11/16 10:03:16;;;;;;;;;;;12.40;99.90;;;;;;5055543;28;20477;-40
2022/11/16 10:05:44;;;;;;;23.40;13.82;;;12.40;99.90;;;;;;5055360;28;19921;-41
2022/11/16 10:08:14;;;;;;;23.52;15.65;;;12.40;99.90;;;;;;5054289;28;20385;-40
2022/11/16 10:10:46;;;;;;;22.88;14.77;;;12.40;99.90;;;;;;5040864;28;20057;-40
2022/11/16 10:13:19;;;;;;;19.15;14.07;;;12.40;99.90;;;;;;5017345;28;20136;-40
2022/11/16 10:15:50;;;;;;;21.10;14.77;;;12.30;99.90;;;;;;5035636;28;20378;-40
2022/11/16 10:18:24;;;;;;;20.58;13.70;;;12.30;99.90;;;;;;5034968;28;20107;-39
2022/11/16 10:21:06;;;;;;;18.63;13.75;;;12.40;99.90;;;;;;5035150;28;20445;-40
2022/11/16 10:23:39;;;;;;;21.70;14.25;;;12.50;99.90;;;;;;5024809;28;20465;-39
2022/11/16 10:26:12;;;;;;;29.13;14.73;;;12.50;99.90;;;;;;5054765;28;20049;-40
2022/11/16 10:28:50;;;;;;;27.70;14.88;;;12.50;99.90;;;;;;5054097;28;20134;-40
2022/11/16 10:31:20;;;;;;;23.00;12.70;;;12.60;99.90;;;;;;5054912;28;20107;-40
2022/11/16 10:33:48;;;;;;;26.02;13.32;;;12.50;99.90;;;;;;5053840;28;20088;-40
2022/11/16 10:36:15;;;;;;;22.55;12.40;;;12.40;99.90;;;;;;5037031;28;20111;-39
2022/11/16 10:38:43;;;;;;;17.75;10.73;;;12.40;99.90;;;;;;5054493;28;20135;-40
2022/11/16 10:41:17;;;;;;;16.85;10.88;;;12.40;99.90;;;;;;5036910;28;20458;-38
2022/11/16 10:43:44;;;;;;;16.52;10.30;;;12.50;99.90;;;;;;5054585;28;20053;-39
2022/11/16 10:46:13;;;;;;;15.18;9.57;;;12.50;99.90;;;;;;5039190;28;20485;-39
2022/11/16 10:48:49;;;;;;;14.23;8.05;;;12.60;99.90;;;;;;5034518;28;20387;-40
2022/11/16 10:51:17;;;;;;;12.50;6.55;;;12.70;99.90;;;;;;5042273;28;20085;-40
2022/11/16 10:53:44;;;;;;;17.77;6.50;;;12.70;99.90;;;;;;5054637;28;20088;-40
2022/11/16 10:56:14;;;;;;;11.02;5.38;;;12.70;99.90;;;;;;5054075;28;20099;-39
2022/11/16 10:58:52;;;;;;;15.20;5.68;;;12.70;99.90;;;;;;5054399;28;20049;-39
2022/11/16 11:01:29;;;;;;;12.73;6.18;;;12.60;99.90;;;;;;5053916;28;20057;-40
2022/11/16 11:03:56;;;;;;;14.82;5.82;;;12.60;99.90;;;;;;5036464;28;20128;-40
2022/11/16 11:06:25;;;;;;;8.32;5.10;;;12.70;99.90;;;;;;5054286;28;20087;-39
2022/11/16 11:08:52;;;;;;;10.00;6.00;;;12.60;99.90;;;;;;5054111;28;20080;-40
2022/11/16 11:14:08;;;;;;;12.60;5.85;;;12.70;99.90;;;;;;5034954;28;20053;-39
2022/11/16 11:16:35;;;;;;;12.05;5.20;;;12.70;99.90;;;;;;5034276;28;20076;-40
2022/11/16 11:19:19;;;;;;;16.67;5.22;;;12.70;99.90;;;;;;5033905;28;20056;-40
2022/11/16 11:21:47;;;;;;;13.40;4.88;;;12.80;99.90;;;;;;5041169;28;20049;-39
2022/11/16 11:24:15;;;;;;;14.18;4.60;;;12.80;99.90;;;;;;5036140;28;20076;-41
2022/11/16 11:26:42;;;;;;;12.95;3.72;;;12.90;99.90;;;;;;5053489;28;20092;-40
2022/11/16 11:29:19;;;;;;;12.80;3.67;;;12.90;99.90;;;;;;5053561;28;20079;-40
2022/11/16 11:31:47;;;;;;;11.90;3.70;;;13.00;99.90;;;;;;5053149;28;20087;-40
2022/11/16 11:34:16;;;;;;;13.25;4.18;;;12.90;99.90;;;;;;5036358;28;20115;-40
2022/11/16 11:36:45;;;;;;;13.38;3.88;;;12.90;99.90;;;;;;5033762;28;20467;-38
2022/11/16 11:39:29;;;;;;;13.18;3.90;;;12.80;99.90;;;;;;5033246;28;20095;-39
2022/11/16 11:42:01;;;;;;;11.80;3.38;;;12.80;99.90;;;;;;5033767;28;20085;-39
2022/11/16 11:44:31;;;;;;;9.45;3.65;;;12.80;99.90;;;;;;5033920;28;20203;-40
2022/11/16 11:47:02;;;;;;;11.50;3.83;;;12.80;99.90;;;;;;5026083;28;20084;-39
2022/11/16 11:49:31;;;;;;;11.77;4.05;;;12.80;99.90;;;;;;5015894;28;20119;-39
2022/11/16 11:52:00;;;;;;;11.80;3.65;;;12.80;99.90;;;;;;5033529;28;20420;-39
2022/11/16 11:54:31;;;;;;;16.30;3.53;;;12.90;99.90;;;;;;5035582;28;20425;-40
2022/11/16 11:56:57;;;;;;;10.90;3.33;;;13.00;99.90;;;;;;5053226;28;20088;-40
2022/11/16 11:59:25;;;;;;;11.48;3.63;;;13.10;99.90;;;;;;5035426;28;20132;-40
2022/11/16 12:01:59;;;;;;;10.13;3.60;;;13.10;99.90;;;;;;5039414;28;20049;-39
2022/11/16 12:05:01;;;;;;;8.77;3.28;;;13.00;99.90;;;;;;5033214;28;20076;-40
2022/11/16 12:07:35;;;;;;;14.48;3.80;;;12.90;99.90;;;;;;4992313;28;20147;-40
2022/11/16 12:10:07;;;;;;;16.30;4.22;;;12.80;99.90;;;;;;5047073;28;20538;-41
2022/11/16 12:12:40;;;;;;;17.17;4.20;;;12.70;99.90;;;;;;5034266;28;20133;-41
2022/11/16 12:15:27;;;;;;;14.95;5.05;;;12.70;99.90;;;;;;5052809;28;20084;-40
2022/11/16 12:17:57;;;;;;;15.95;4.60;;;12.60;99.90;;;;;;5052854;28;20150;-40
2022/11/16 12:20:36;;;;;;;14.27;4.32;;;12.60;99.90;;;;;;5048734;28;20142;-41
2022/11/16 12:23:16;;;;;;;15.48;3.90;;;12.60;99.90;;;;;;5032346;28;20128;-40
2022/11/16 12:25:48;;;;;;;20.05;4.10;;;12.60;99.90;;;;;;5015028;28;20120;-40
2022/11/16 12:28:22;;;;;;;15.68;3.58;;;12.60;99.90;;;;;;5032817;28;20402;-40
2022/11/16 12:30:55;;;;;;;14.00;3.40;;;12.60;99.90;;;;;;5033013;28;20140;-39
2022/11/16 12:33:26;;;;;;;12.85;2.50;;;12.70;99.90;;;;;;5032008;28;20501;-40
2022/11/16 12:35:57;;;;;;;17.48;3.20;;;12.70;99.90;;;;;;5015248;28;20128;-40
2022/11/16 12:38:35;;;;;;;15.93;3.33;;;12.60;99.90;;;;;;5032738;28;20123;-40
2022/11/16 12:41:22;;;;;;;11.60;3.20;;;12.60;99.90;;;;;;5032832;28;20056;-41
2022/11/16 12:43:52;;;;;;;15.48;4.22;;;12.60;99.90;;;;;;5034113;28;20143;-41
2022/11/16 12:46:21;;;;;;;16.77;3.55;;;12.60;99.90;;;;;;5052526;28;20081;-41
2022/11/16 12:49:10;;;;;;;14.93;3.28;;;12.60;99.90;;;;;;5052358;28;20048;-40
2022/11/16 12:51:51;;;;;;;12.95;3.67;;;12.70;99.90;;;;;;5052475;28;20139;-41
2022/11/16 12:54:37;;;;;;;16.60;3.95;;;12.70;99.90;;;;;;5052435;28;20127;-40
2022/11/16 12:57:07;;;;;;;15.93;3.13;;;12.80;99.90;;;;;;5049613;28;20059;-40
2022/11/16 12:59:45;;;;;;;17.98;3.00;;;12.70;99.90;;;;;;5050297;28;20123;-40
2022/11/16 13:02:16;;;;;;;16.00;3.67;;;12.60;99.90;;;;;;5034073;28;20080;-40
2022/11/16 13:04:44;;;;;;;15.67;3.70;;;12.60;99.90;;;;;;5017075;28;20103;-41
2022/11/16 13:07:13;;;;;;;12.60;3.58;;;12.60;99.90;;;;;;5032086;28;20437;-41
2022/11/16 13:09:40;;;;;;;16.40;3.40;;;12.60;99.90;;;;;;5032438;28;20570;-41
2022/11/16 13:12:13;;;;;;;17.83;3.38;;;12.60;99.90;;;;;;5035887;28;20099;-41
2022/11/16 13:14:40;;;;;;;18.05;3.42;;;12.60;99.90;;;;;;5015146;28;20056;-41
2022/11/16 13:17:07;;;;;;;14.75;3.47;;;12.60;99.90;;;;;;5037220;28;20120;-40
2022/11/16 13:19:35;;;;;;;17.33;3.95;;;12.70;99.90;;;;;;5034865;28;20138;-40